Louisville, KY

8:58 PM EDT on August 22, 2017 (GMT -0400)
Louisville International-Standiford | | Change Station

Elev 499 ft 38.17 °N, 85.74 °W | Updated 1 hour ago

Mostly Cloudy
Mostly Cloudy
75 °F
Feels Like 75 °F
N
6
Wind Variable Wind from WSW

Today
High -- | Low -- °F
--% Chance of Precip.
Yesterday
High -- | Low -- °F
Precip. -- in
Pressure 29.92 in
Visibility 10.0 miles
Clouds Mostly Cloudy 4500 ft
Mostly Cloudy 6000 ft
Mostly Cloudy 13000 ft
Dew Point 71 °F
Humidity 87%
Rainfall 0.38 in
Snow Depth Not available.
7:04 AM 8:26 PM
New Moon, 2% visible
METAR KSDF 222356Z 25005KT 10SM BKN045 BKN060 BKN130 24/22 A2993 RMK AO2 SLP130 60038 T02390217 10300 20228 50001
Pressure 29.92 in
Visibility 10.0 miles
Clouds Mostly Cloudy 4500 ft
Mostly Cloudy 6000 ft
Mostly Cloudy 13000 ft
Dew Point 71 °F
Humidity 87%
Rainfall 0.38 in
Snow Depth Not available.
7:04 AM 8:26 PM
New Moon, 2% visible
METAR KSDF 222356Z 25005KT 10SM BKN045 BKN060 BKN130 24/22 A2993 RMK AO2 SLP130 60038 T02390217 10300 20228 50001

Get Severe Weather Alerts

Thanks for signing up!

Be on the lookout for a verification email in your inbox.

You'll start receiving the daily forecast at 6 AM.

×

10-Day Weather Forecast

Almanac

Astronomy

Aug. 22, 2017 Rise Set
Actual Time
Civil Twilight
Nautical Twilight
Astronomical Twilight
Moon
Length of Visible Light
Length of Day
Tomorrow will be .
, % of the Moon is Illuminated

Today's Extremes

State Highs State Lows

Community

WunderPhotos

Category 6

Welcome to Category 6. This is the collective home for Weather Underground's featured writeups by Dr. Jeff Masters (right), Bob Henson (left), Chris Burt, and other regular contributors.

Nearby

Air Quality

  Air Quality AQ Index Pollutant
Not available.

Snow Depth

Station Depth Elevation

Earthquake Activity

City Distance Mag. Time & Date
Minimum magnitude displayed is 2.5.

Coastal Water Temperatures

Place Temperature

Stations

Nearby Weather Stations

Station Location Temp. Windchill Dew Point Humidity Wind Precip. Elev Updated Type
                   

Watches & Warnings

There are currently no watches in effect.